Strona główna
METAR-TAF:

METAR-TAF

Lotnisko :

Port lotniczy Siem Reap

Siem Reap, Kambodża

Szerokość geograficzna: 13-22N, Długość geograficzna: 103-51E, wysokość: 15 m

Aktualna obserwacja pogody

Raport powstał 39 minut temu, godzina 14:00 UTC
Wiatr 4 kt od południe, zmienny między wschodnio-południowy wschód i południowy zachód
Temperatura 31°C
Wilgotność 46%
Ciśnienie 1007 hPa
Widzialność: 9000 m
Mało chmury na wysokości 1700 ft

METAR: VDSR 231400Z 18004KT 120V220 9000 FEW017 31/18 Q1007

czas: 21:39 (14:39 UTC)

Prognoza

Raport powstał 3 godziny i 39 minut temu, godzina 11:00 UTC
Prognoza ważna od 23 godzina 12 UTC do 24 godzina 06 UTC
Wiatr 7 kt od południowo-południowy wschód
Widzialność 10 km lub więcej
Rozproszone chmury na wysokości 1700 ft
Przejściowo
od 23 godzina 12 UTC do 23 godzina 16 UTC
Widzialność: 5000 m
Rozproszone chmury na wysokości 1500 ft
Mało chmury na wysokości 1700 ft, Cumulonimbus.
burza, deszcz

TAF: VDSR 231100Z 2312/2406 16007KT 9999 SCT017 TEMPO 2312/2316 5000 TSRA SCT015 FEW017CB

Obserwacja i prognoza pogody dla ponad 4000 lotnisk (raport METAR i TAF).

Dostępne stacje oznaczono żółtymi i czerwonymi punktami na mapie.

Najedź kursorem aby zobaczyć nazwę stacji.

Kliknij aby zobaczyć obserwacje i prognozy pogody.

Aby zmienić mapę: kliknij na zielony przycisk z czarnym krzyżykiem, aby powiększyć; na zielony przycisk z myślnikiem, aby pomniejszyć; na zielone strzałki, aby przejść do map sąsiednich.


METAR-TAF: